CheckWX is a tool to help pilots better visualize weather data.  It is not intended as a substitute for an official pre-flight weather briefing.

05:19:52 UTC

FNDU METAR
Dundo Airport
Chitato, Angola
Current

14 hours ago

FNDU 191500Z 00000KT 9999 SCT029 FEW033CB 30/18 Q1012
Observed
Feb-19 @ 15:00 UTC
Visibility
10,000+ meters
Flight Rules
VFR
Cloud Levels
  • Scattered at 2,900' AGL
  • Few at 3,300' AGL
Temperature
30°C / 86°F
Dewpoint
18°C / 64°F
Humidity
49%
Altimeter
29.88" Hg
Pressure
1011.92 hPa
Previous

15 hours ago

FNDU 191400Z 00000KT 9999 SCT033 FEW034CB 30/21 Q1012
Observed
Feb-19 @ 14:00 UTC
Visibility
10,000+ meters
Flight Rules
VFR
Cloud Levels
  • Scattered at 3,300' AGL
  • Few at 3,400' AGL
Temperature
30°C / 86°F
Dewpoint
21°C / 70°F
Humidity
59%
Altimeter
29.88" Hg
Pressure
1011.92 hPa
Previous

17 hours ago

FNDU 191200Z 00000KT 9999 FEW033 FEW034CB 27/18 Q1015
Observed
Feb-19 @ 12:00 UTC
Visibility
10,000+ meters
Flight Rules
VFR
Cloud Levels
  • Few at 3,300' AGL
  • Few at 3,400' AGL
Temperature
27°C / 81°F
Dewpoint
18°C / 64°F
Humidity
58%
Altimeter
29.97" Hg
Pressure
1014.92 hPa